createdAt,value
2019-04-03T00:02:22.741Z,51.60
2019-04-03T00:04:56.742Z,53.87
2019-04-03T00:07:30.586Z,51.50
2019-04-03T00:10:06.638Z,49.40
2019-04-03T00:12:41.275Z,48.67
2019-04-03T00:15:15.352Z,53.37
2019-04-03T00:17:49.073Z,49.40
2019-04-03T00:20:22.867Z,46.27
2019-04-03T00:22:56.585Z,49.83
2019-04-03T00:25:30.656Z,44.87
2019-04-03T00:28:04.467Z,48.97
2019-04-03T00:30:38.577Z,50.10
2019-04-03T00:33:12.269Z,43.23
2019-04-03T00:35:46.332Z,47.30
2019-04-03T00:38:20.038Z,49.43
2019-04-03T00:40:54.262Z,39.47
2019-04-03T00:43:28.627Z,36.60
2019-04-03T00:46:02.777Z,39.70
2019-04-03T00:48:36.749Z,40.17
2019-04-03T00:51:10.814Z,36.70
2019-04-03T00:53:44.771Z,34.83
2019-04-03T00:56:18.508Z,35.00
2019-04-03T00:58:52.221Z,31.17
2019-04-03T01:01:26.521Z,30.43
2019-04-03T01:04:00.772Z,36.67
2019-04-03T01:06:34.664Z,34.47
2019-04-03T01:09:08.827Z,29.63
2019-04-03T01:11:42.574Z,36.73
2019-04-03T01:14:16.344Z,32.20
2019-04-03T01:16:50.094Z,32.80
2019-04-03T01:19:24.064Z,39.53
2019-04-03T01:21:57.901Z,31.13
2019-04-03T01:24:31.599Z,31.77
2019-04-03T01:27:05.624Z,28.03
2019-04-03T01:29:42.228Z,31.50
2019-04-03T01:32:16.232Z,28.23
2019-04-03T01:34:50.229Z,33.87
2019-04-03T01:37:24.188Z,28.40
2019-04-03T01:39:57.942Z,33.60
2019-04-03T01:42:31.709Z,31.90
2019-04-03T01:45:05.950Z,36.13
2019-04-03T01:47:40.025Z,40.03
2019-04-03T01:50:13.974Z,34.73
2019-04-03T01:52:47.901Z,35.70
2019-04-03T01:55:21.673Z,37.00
2019-04-03T01:57:55.666Z,32.70
2019-04-03T02:00:29.672Z,33.73
2019-04-03T02:03:03.405Z,33.67
2019-04-03T02:05:37.207Z,32.33
2019-04-03T02:08:14.236Z,32.13
2019-04-03T02:10:48.949Z,32.00
2019-04-03T02:13:22.894Z,32.07
2019-04-03T02:15:56.600Z,36.87
2019-04-03T02:18:30.444Z,35.40
2019-04-03T02:21:04.284Z,33.53
2019-04-03T02:23:38.027Z,34.10
2019-04-03T02:26:11.963Z,35.70
2019-04-03T02:28:45.718Z,40.33
2019-04-03T02:31:20.246Z,41.17
2019-04-03T02:33:54.243Z,40.20
2019-04-03T02:36:28.022Z,50.27
2019-04-03T02:39:01.764Z,47.30
2019-04-03T02:41:37.046Z,40.57
2019-04-03T02:44:11.670Z,41.17
2019-04-03T02:46:45.708Z,41.47
2019-04-03T02:49:19.806Z,38.00
2019-04-03T02:51:53.890Z,41.27
2019-04-03T02:54:28.967Z,38.43
2019-04-03T02:57:02.760Z,40.93
2019-04-03T02:59:36.475Z,43.30
2019-04-03T03:02:12.551Z,48.80
2019-04-03T03:04:45.711Z,44.03
2019-04-03T03:07:20.081Z,41.50
2019-04-03T03:09:54.490Z,44.87
2019-04-03T03:12:28.754Z,47.07
2019-04-03T03:15:02.749Z,44.50
2019-04-03T03:17:37.645Z,47.27
2019-04-03T03:20:12.184Z,45.60
2019-04-03T03:22:49.842Z,40.90
2019-04-03T03:25:22.282Z,45.53
2019-04-03T03:27:57.352Z,40.87
2019-04-03T03:30:41.898Z,49.40
2019-04-03T03:33:26.448Z,50.03
2019-04-03T03:35:47.208Z,45.70
2019-04-03T03:38:19.863Z,49.37
2019-04-03T03:40:54.428Z,58.83
2019-04-03T03:43:28.794Z,42.67
2019-04-03T03:46:03.307Z,41.63
2019-04-03T03:48:42.109Z,44.27
2019-04-03T03:51:14.735Z,48.50
2019-04-03T03:53:49.315Z,40.03
2019-04-03T03:56:23.309Z,43.83
2019-04-03T03:58:58.055Z,41.70
2019-04-03T04:01:32.919Z,45.30
2019-04-03T04:04:06.603Z,48.90
2019-04-03T04:06:40.523Z,47.10
2019-04-03T04:09:17.124Z,45.00
2019-04-03T04:11:49.778Z,49.83
2019-04-03T04:14:23.927Z,48.00
2019-04-03T04:16:57.968Z,50.40
2019-04-03T04:19:31.774Z,54.53
2019-04-03T04:22:05.566Z,45.07
2019-04-03T04:24:39.574Z,49.43
2019-04-03T04:27:13.565Z,50.47
2019-04-03T04:29:47.794Z,47.60
2019-04-03T04:32:21.530Z,54.27
2019-04-03T04:34:55.221Z,56.57
2019-04-03T04:37:29.608Z,50.40
2019-04-03T04:40:03.674Z,56.23
2019-04-03T04:42:38.478Z,58.77
2019-04-03T04:45:12.531Z,48.70
2019-04-03T04:47:46.901Z,49.20
2019-04-03T04:50:25.334Z,52.40
2019-04-03T04:52:59.949Z,52.50
2019-04-03T04:55:35.122Z,47.00
2019-04-03T04:58:09.671Z,49.27
2019-04-03T05:00:47.471Z,45.47
2019-04-03T05:03:21.882Z,42.93
2019-04-03T05:05:58.308Z,43.40
2019-04-03T05:08:32.950Z,37.97
2019-04-03T05:11:07.485Z,35.47
2019-04-03T05:13:41.906Z,36.60
2019-04-03T05:16:15.622Z,33.67
2019-04-03T05:18:49.345Z,42.90
2019-04-03T05:21:23.320Z,36.60
2019-04-03T05:24:10.359Z,38.60
2019-04-03T05:26:33.738Z,41.17
2019-04-03T05:29:07.785Z,35.80
2019-04-03T05:31:41.682Z,39.83
2019-04-03T05:34:15.691Z,45.33
2019-04-03T05:36:49.677Z,36.17
2019-04-03T05:39:24.735Z,40.13
2019-04-03T05:41:59.563Z,36.07
2019-04-03T05:44:34.386Z,35.00
2019-04-03T05:47:08.567Z,33.63
2019-04-03T05:49:46.407Z,31.83
2019-04-03T05:52:19.761Z,29.70
2019-04-03T05:54:54.275Z,30.47
2019-04-03T05:57:29.368Z,30.53
2019-04-03T06:00:06.258Z,32.40
2019-04-03T06:02:39.488Z,32.57
2019-04-03T06:05:13.495Z,31.57
2019-04-03T06:07:49.373Z,26.90
2019-04-03T06:10:22.661Z,29.13
2019-04-03T06:12:56.357Z,31.57
2019-04-03T06:15:30.154Z,30.23
2019-04-03T06:18:03.939Z,28.70
2019-04-03T06:20:38.014Z,29.30
2019-04-03T06:23:11.701Z,30.27
2019-04-03T06:25:45.442Z,25.87
2019-04-03T06:28:19.198Z,28.07
2019-04-03T06:30:55.580Z,24.70
2019-04-03T06:33:31.071Z,26.73
2019-04-03T06:36:04.009Z,26.23
2019-04-03T06:38:37.771Z,30.60
2019-04-03T06:41:11.644Z,30.80
2019-04-03T06:43:47.264Z,26.73
2019-04-03T06:46:21.274Z,29.43
2019-04-03T06:48:55.785Z,27.97
2019-04-03T06:51:30.100Z,28.23
2019-04-03T06:54:07.150Z,27.80
2019-04-03T06:56:41.139Z,31.97
2019-04-03T06:59:16.517Z,30.03
2019-04-03T07:01:52.348Z,37.90
2019-04-03T07:04:25.922Z,32.00
2019-04-03T07:06:59.842Z,31.83
2019-04-03T07:09:36.560Z,26.63
2019-04-03T07:12:09.014Z,26.90
2019-04-03T07:14:43.406Z,29.23
2019-04-03T07:17:17.215Z,30.80
2019-04-03T07:19:51.002Z,29.57
2019-04-03T07:22:27.110Z,30.80
2019-04-03T07:25:02.764Z,30.07
2019-04-03T07:27:37.388Z,26.60
2019-04-03T07:30:12.094Z,26.97
2019-04-03T07:32:45.936Z,25.03
2019-04-03T07:35:19.679Z,28.43
2019-04-03T07:37:53.629Z,24.23
2019-04-03T07:40:27.599Z,25.03
2019-04-03T07:43:01.404Z,25.73
2019-04-03T07:45:35.103Z,25.70
2019-04-03T07:48:08.853Z,23.13
2019-04-03T07:50:43.057Z,27.03
2019-04-03T07:53:17.828Z,24.03
2019-04-03T07:55:55.024Z,27.07
2019-04-03T07:58:30.609Z,25.23
2019-04-03T08:01:03.649Z,24.97
2019-04-03T08:03:37.528Z,21.93
2019-04-03T08:06:11.226Z,23.10
2019-04-03T08:08:45.170Z,22.00
2019-04-03T08:11:18.925Z,22.70
2019-04-03T08:13:52.749Z,26.33
2019-04-03T08:16:27.233Z,24.80
2019-04-03T08:19:01.573Z,23.13
2019-04-03T08:21:35.649Z,23.33
2019-04-03T08:24:09.587Z,19.23
2019-04-03T08:26:43.590Z,19.03
2019-04-03T08:29:17.577Z,24.40
2019-04-03T08:31:51.412Z,17.97
2019-04-03T08:34:25.163Z,18.20
2019-04-03T08:37:01.423Z,22.67
2019-04-03T08:39:34.468Z,18.53
2019-04-03T08:42:08.170Z,19.53
2019-04-03T08:44:42.159Z,18.70
2019-04-03T08:47:16.171Z,13.93
2019-04-03T08:49:50.122Z,14.87
2019-04-03T08:52:24.267Z,16.57
2019-04-03T08:54:58.034Z,14.13
2019-04-03T08:57:32.082Z,12.93
2019-04-03T09:00:06.705Z,12.23
2019-04-03T09:02:43.509Z,13.87
2019-04-03T09:05:17.322Z,13.43
2019-04-03T09:07:51.893Z,12.00
2019-04-03T09:10:25.707Z,13.70
2019-04-03T09:12:59.422Z,13.07
2019-04-03T09:15:33.709Z,15.00
2019-04-03T09:18:07.791Z,15.13
2019-04-03T09:20:43.388Z,14.30
2019-04-03T09:23:17.226Z,15.80
2019-04-03T09:25:51.547Z,15.53
2019-04-03T09:28:25.222Z,15.70
2019-04-03T09:30:58.969Z,15.83
2019-04-03T09:33:32.733Z,14.93
2019-04-03T09:36:06.570Z,15.47
2019-04-03T09:38:41.485Z,17.93
2019-04-03T09:41:18.505Z,14.77
2019-04-03T09:43:53.403Z,13.43
2019-04-03T09:46:26.800Z,14.43
2019-04-03T09:49:00.568Z,14.13
2019-04-03T09:51:34.316Z,12.87
2019-04-03T09:54:08.185Z,12.47
2019-04-03T09:56:57.206Z,13.03
2019-04-03T09:59:17.578Z,14.17
2019-04-03T10:01:51.355Z,13.70
2019-04-03T10:04:26.310Z,14.63
2019-04-03T10:07:02.031Z,15.70
2019-04-03T10:09:38.444Z,12.27
2019-04-03T10:12:11.502Z,14.17
2019-04-03T10:14:45.284Z,14.03
2019-04-03T10:17:19.206Z,15.30
2019-04-03T10:19:52.936Z,17.60
2019-04-03T10:22:27.258Z,11.80
2019-04-03T10:25:04.849Z,12.07
2019-04-03T10:27:36.991Z,13.97
2019-04-03T10:30:13.286Z,13.83
2019-04-03T10:32:47.012Z,14.40
2019-04-03T10:35:20.790Z,12.67
2019-04-03T10:37:54.532Z,12.63
2019-04-03T10:40:28.504Z,12.27
2019-04-03T10:43:04.690Z,11.40
2019-04-03T10:45:38.134Z,19.73
2019-04-03T10:48:12.287Z,13.83
2019-04-03T10:50:46.030Z,10.93
2019-04-03T10:53:20.365Z,11.20
2019-04-03T10:55:54.900Z,12.20
2019-04-03T10:58:29.047Z,11.63
2019-04-03T11:01:02.860Z,10.23
2019-04-03T11:03:37.001Z,10.30
2019-04-03T11:06:11.455Z,10.30
2019-04-03T11:08:45.226Z,9.93
2019-04-03T11:11:19.243Z,11.07
2019-04-03T11:13:53.067Z,10.23
2019-04-03T11:16:26.791Z,9.57
2019-04-03T11:19:05.109Z,9.00
2019-04-03T11:21:36.522Z,8.57
2019-04-03T11:24:10.314Z,7.93
2019-04-03T11:26:44.057Z,7.03
2019-04-03T11:29:18.225Z,8.50
2019-04-03T11:31:52.242Z,6.87
2019-04-03T11:34:26.003Z,6.50
2019-04-03T11:37:00.547Z,7.27
2019-04-03T11:39:37.454Z,9.47
2019-04-03T11:42:22.469Z,9.37
2019-04-03T11:44:46.459Z,7.20
2019-04-03T11:47:20.365Z,6.70
2019-04-03T11:49:54.575Z,7.83
2019-04-03T11:52:28.643Z,6.20
2019-04-03T11:55:02.525Z,7.43
2019-04-03T11:57:36.357Z,5.77
2019-04-03T12:00:15.603Z,6.00
2019-04-03T12:02:49.367Z,7.07
2019-04-03T12:05:23.182Z,8.30
2019-04-03T12:07:57.449Z,7.43
2019-04-03T12:10:32.831Z,8.60
2019-04-03T12:13:07.069Z,6.10
2019-04-03T12:15:40.721Z,7.00
2019-04-03T12:18:14.424Z,5.90
2019-04-03T12:20:49.943Z,5.40
2019-04-03T12:23:26.844Z,5.83
2019-04-03T12:26:00.246Z,6.50
2019-04-03T12:28:34.254Z,6.27
2019-04-03T12:31:08.395Z,6.23
2019-04-03T12:33:52.412Z,7.17
2019-04-03T12:36:17.554Z,7.00
2019-04-03T12:38:55.039Z,6.90
2019-04-03T12:41:27.970Z,5.33
2019-04-03T12:44:01.753Z,5.47
2019-04-03T12:46:37.360Z,4.90
2019-04-03T12:49:11.084Z,5.03
2019-04-03T12:51:44.812Z,4.83
2019-04-03T12:54:20.635Z,5.87
2019-04-03T12:56:54.057Z,3.60
2019-04-03T12:59:28.096Z,3.83
2019-04-03T13:02:01.916Z,4.30
2019-04-03T13:04:35.829Z,5.17
2019-04-03T13:07:13.421Z,3.63
2019-04-03T13:09:45.398Z,4.73
2019-04-03T13:12:21.990Z,7.43
2019-04-03T13:14:55.130Z,4.63
2019-04-03T13:17:29.185Z,5.73
2019-04-03T13:20:05.631Z,5.50
2019-04-03T13:22:41.305Z,7.57
2019-04-03T13:25:16.186Z,8.00
2019-04-03T13:27:49.860Z,10.23
2019-04-03T13:30:24.483Z,9.50
2019-04-03T13:33:02.982Z,10.40
2019-04-03T13:35:34.038Z,13.40
2019-04-03T13:38:08.500Z,13.17
2019-04-03T13:40:42.211Z,11.57
2019-04-03T13:43:16.252Z,11.47
2019-04-03T13:45:50.119Z,10.77
2019-04-03T13:48:24.005Z,12.03
2019-04-03T13:50:57.824Z,10.27
2019-04-03T13:53:31.948Z,12.20
2019-04-03T13:56:06.751Z,11.37
2019-04-03T13:58:41.661Z,14.10
2019-04-03T14:01:15.904Z,12.17
2019-04-03T14:03:50.938Z,13.10
2019-04-03T14:06:25.515Z,12.07
2019-04-03T14:08:59.583Z,14.03
2019-04-03T14:11:33.345Z,14.70
2019-04-03T14:14:07.059Z,15.47
2019-04-03T14:16:40.766Z,17.80
2019-04-03T14:19:14.489Z,18.60
2019-04-03T14:21:48.447Z,20.10
2019-04-03T14:24:22.569Z,20.33
2019-04-03T14:26:56.537Z,18.50
2019-04-03T14:29:30.679Z,19.77
2019-04-03T14:32:04.450Z,19.63
2019-04-03T14:34:40.064Z,19.00
2019-04-03T14:37:13.698Z,18.33
2019-04-03T14:39:47.506Z,16.90
2019-04-03T14:42:21.163Z,17.97
2019-04-03T14:44:54.940Z,18.43
2019-04-03T14:47:28.652Z,19.87
2019-04-03T14:50:04.971Z,22.10
2019-04-03T14:52:38.429Z,19.93
2019-04-03T14:55:19.932Z,19.53
2019-04-03T14:57:47.715Z,18.20
2019-04-03T15:00:27.464Z,19.50
2019-04-03T15:02:57.627Z,17.67
2019-04-03T15:05:32.309Z,17.43
2019-04-03T15:08:06.215Z,15.93
2019-04-03T15:10:40.450Z,18.67
2019-04-03T15:13:14.893Z,18.20
2019-04-03T15:15:48.770Z,17.90
2019-04-03T15:18:23.486Z,19.83
2019-04-03T15:20:57.227Z,15.80
2019-04-03T15:23:31.113Z,19.50
2019-04-03T15:26:04.987Z,17.83
2019-04-03T15:28:38.883Z,16.87
2019-04-03T15:31:14.328Z,18.03
2019-04-03T15:33:48.294Z,16.40
2019-04-03T15:36:22.035Z,16.07
2019-04-03T15:38:58.403Z,18.57
2019-04-03T15:41:33.979Z,19.60
2019-04-03T15:44:07.103Z,17.83
2019-04-03T15:46:40.933Z,18.37
2019-04-03T15:49:14.642Z,18.47
2019-04-03T15:51:48.393Z,18.47
2019-04-03T15:54:22.562Z,19.43
2019-04-03T15:56:56.735Z,18.97
2019-04-03T15:59:30.895Z,18.50
2019-04-03T16:02:05.074Z,18.20
2019-04-03T16:04:38.786Z,20.83
2019-04-03T16:07:12.831Z,18.47
2019-04-03T16:09:49.541Z,20.83
2019-04-03T16:12:22.338Z,18.97
2019-04-03T16:14:56.294Z,18.90
2019-04-03T16:17:32.323Z,21.53
2019-04-03T16:20:06.123Z,21.63
2019-04-03T16:22:40.263Z,21.63
2019-04-03T16:25:17.216Z,22.20
2019-04-03T16:27:49.880Z,20.23
2019-04-03T16:30:23.937Z,22.47
2019-04-03T16:33:02.421Z,24.40
2019-04-03T16:35:33.805Z,23.27
2019-04-03T16:38:08.271Z,21.00
2019-04-03T16:40:42.189Z,22.20
2019-04-03T16:43:16.350Z,23.60
2019-04-03T16:45:50.344Z,24.33
2019-04-03T16:48:24.547Z,22.27
2019-04-03T16:51:00.151Z,23.30
2019-04-03T16:53:33.686Z,24.00
2019-04-03T16:56:07.394Z,25.90
2019-04-03T16:58:41.165Z,28.20
2019-04-03T17:01:15.139Z,23.23
2019-04-03T17:03:49.347Z,21.30
2019-04-03T17:06:22.993Z,26.97
2019-04-03T17:08:58.677Z,25.60
2019-04-03T17:11:32.198Z,22.03
2019-04-03T17:14:06.011Z,23.13
2019-04-03T17:16:39.988Z,23.97
2019-04-03T17:19:13.745Z,26.10
2019-04-03T17:21:47.442Z,24.40
2019-04-03T17:24:21.208Z,25.70
2019-04-03T17:26:58.312Z,23.30
2019-04-03T17:29:30.673Z,25.53
2019-04-03T17:32:07.971Z,27.10
2019-04-03T17:34:43.066Z,37.23
2019-04-03T17:37:19.118Z,32.33
2019-04-03T17:39:52.506Z,35.77
2019-04-03T17:42:26.167Z,34.43
2019-04-03T17:45:00.204Z,31.13
2019-04-03T17:47:33.900Z,30.47
2019-04-03T17:50:08.051Z,27.73
2019-04-03T17:52:41.745Z,27.67
2019-04-03T17:55:16.001Z,26.40
2019-04-03T17:57:49.702Z,31.40
2019-04-03T18:00:23.907Z,28.80
2019-04-03T18:02:57.693Z,27.57
2019-04-03T18:05:33.173Z,23.70
2019-04-03T18:08:06.905Z,32.20
2019-04-03T18:10:42.583Z,25.57
2019-04-03T18:13:16.346Z,28.50
2019-04-03T18:15:50.175Z,30.53
2019-04-03T18:18:23.877Z,28.13
2019-04-03T18:20:57.610Z,25.10
2019-04-03T18:23:31.311Z,24.20
2019-04-03T18:26:05.395Z,23.97
2019-04-03T18:28:39.106Z,23.00
2019-04-03T18:31:13.622Z,23.83
2019-04-03T18:33:48.768Z,23.20
2019-04-03T18:36:23.016Z,21.40
2019-04-03T18:38:56.708Z,21.30
2019-04-03T18:41:30.428Z,22.67
2019-04-03T18:44:04.421Z,25.37
2019-04-03T18:46:38.169Z,22.57
2019-04-03T18:49:11.874Z,25.97
2019-04-03T18:51:45.617Z,28.10
2019-04-03T18:54:19.317Z,22.47
2019-04-03T18:56:53.053Z,25.77
2019-04-03T18:59:26.762Z,23.73
2019-04-03T19:02:03.552Z,23.60
2019-04-03T19:04:37.681Z,24.50
2019-04-03T19:07:12.043Z,22.53
2019-04-03T19:09:45.751Z,24.87
2019-04-03T19:12:19.491Z,27.03
2019-04-03T19:14:53.198Z,27.73
2019-04-03T19:17:27.120Z,26.40
2019-04-03T19:20:10.234Z,26.40
2019-04-03T19:22:36.513Z,30.30
2019-04-03T19:25:10.759Z,27.77
2019-04-03T19:27:44.493Z,27.70
2019-04-03T19:30:18.540Z,27.30
2019-04-03T19:32:52.607Z,25.87
2019-04-03T19:35:28.494Z,31.00
2019-04-03T19:38:04.759Z,28.33
2019-04-03T19:40:40.332Z,27.73
2019-04-03T19:43:14.921Z,24.60
2019-04-03T19:45:49.869Z,27.03
2019-04-03T19:48:25.648Z,26.43
2019-04-03T19:51:02.728Z,27.77
2019-04-03T19:53:36.042Z,31.73
2019-04-03T19:56:09.778Z,27.80
2019-04-03T19:58:43.517Z,29.43
2019-04-03T20:01:17.367Z,29.20
2019-04-03T20:03:51.097Z,30.07
2019-04-03T20:06:24.870Z,32.13
2019-04-03T20:08:58.985Z,26.67
2019-04-03T20:11:35.768Z,27.27
2019-04-03T20:14:11.190Z,28.00
2019-04-03T20:16:44.968Z,29.83
2019-04-03T20:19:19.072Z,28.60
2019-04-03T20:21:53.118Z,28.83
2019-04-03T20:24:26.870Z,29.23
2019-04-03T20:27:00.850Z,33.80
2019-04-03T20:29:34.632Z,27.20
2019-04-03T20:32:08.338Z,31.13
2019-04-03T20:34:44.403Z,30.20
2019-04-03T20:37:18.084Z,29.70
2019-04-03T20:39:51.897Z,31.67
2019-04-03T20:42:25.867Z,31.23
2019-04-03T20:44:59.845Z,30.83
2019-04-03T20:47:33.961Z,28.00
2019-04-03T20:50:08.184Z,31.83
2019-04-03T20:52:41.886Z,31.27
2019-04-03T20:55:15.710Z,27.80
2019-04-03T20:57:55.290Z,31.90
2019-04-03T21:00:25.172Z,31.03
2019-04-03T21:02:58.874Z,29.23
2019-04-03T21:05:32.668Z,33.80
2019-04-03T21:08:06.442Z,33.17
2019-04-03T21:10:40.199Z,28.83
2019-04-03T21:13:15.531Z,35.90
2019-04-03T21:15:52.113Z,25.20
2019-04-03T21:18:24.813Z,29.70
2019-04-03T21:21:01.215Z,27.67
2019-04-03T21:23:34.243Z,28.90
2019-04-03T21:26:08.236Z,33.13
2019-04-03T21:28:42.971Z,33.73
2019-04-03T21:31:17.733Z,29.23
2019-04-03T21:33:51.441Z,31.83
2019-04-03T21:36:25.496Z,29.90
2019-04-03T21:38:59.416Z,31.10
2019-04-03T21:41:33.158Z,28.83
2019-04-03T21:44:06.861Z,31.83
2019-04-03T21:46:40.605Z,26.00
2019-04-03T21:49:14.820Z,28.17
2019-04-03T21:51:51.914Z,30.37
2019-04-03T21:54:26.912Z,29.13
2019-04-03T21:57:01.064Z,29.83
2019-04-03T21:59:35.048Z,25.83
2019-04-03T22:02:08.809Z,28.90
2019-04-03T22:04:42.512Z,28.13
2019-04-03T22:07:16.524Z,28.87
2019-04-03T22:09:50.509Z,29.50
2019-04-03T22:12:24.253Z,28.00
2019-04-03T22:14:57.958Z,30.33
2019-04-03T22:17:31.743Z,29.83
2019-04-03T22:20:06.169Z,26.10
2019-04-03T22:22:40.143Z,28.87
2019-04-03T22:25:13.856Z,28.53
2019-04-03T22:27:47.583Z,29.50
2019-04-03T22:30:21.863Z,27.00
2019-04-03T22:32:56.442Z,27.43
2019-04-03T22:35:32.259Z,25.90
2019-04-03T22:38:06.194Z,26.07
2019-04-03T22:40:41.480Z,27.07
2019-04-03T22:43:15.534Z,25.87
2019-04-03T22:45:50.708Z,27.17
2019-04-03T22:48:26.607Z,28.97
2019-04-03T22:51:00.393Z,26.50
2019-04-03T22:53:34.379Z,27.53
2019-04-03T22:56:08.081Z,25.90
2019-04-03T22:58:42.172Z,26.77
2019-04-03T23:01:16.042Z,26.70
2019-04-03T23:03:49.773Z,29.07
2019-04-03T23:06:23.476Z,28.00
2019-04-03T23:08:57.225Z,26.87
2019-04-03T23:11:32.044Z,28.37
2019-04-03T23:14:07.561Z,28.00
2019-04-03T23:16:42.694Z,29.47
2019-04-03T23:19:18.036Z,26.77
2019-04-03T23:21:52.930Z,29.03
2019-04-03T23:24:28.883Z,28.67
2019-04-03T23:27:03.600Z,27.40
2019-04-03T23:29:37.688Z,32.90
2019-04-03T23:32:11.384Z,31.30
2019-04-03T23:34:45.133Z,30.03
2019-04-03T23:37:18.834Z,31.20
2019-04-03T23:39:52.855Z,31.97
2019-04-03T23:42:26.843Z,30.30
2019-04-03T23:45:00.581Z,29.40
2019-04-03T23:47:34.282Z,28.60
2019-04-03T23:50:08.576Z,29.47
2019-04-03T23:52:42.280Z,27.47
2019-04-03T23:55:16.033Z,33.30
2019-04-03T23:57:49.744Z,30.43
